KONO

Ontario Municipal Airport

Ontario, Oregon, USA
METAR KONO 210453Z AUTO 34008KT 7SM CLR 21/07 A2998 RMK AO2 SLP136 T02110072 TSNO
Observed Flight Rules
Aug-21 @ 04:53 UTC (9 hours ago) Visual Flight Rules
Wind Visibility Clouds
340° at 8 knots 7 miles
  • Clear skies
Temperatures Readings
Current 21°C / 70°F
Dewpoint 7°C / 45°F
Humidity 40%
Altimeter 29.98" Hg
Pressure 1013.6 hPa
Elevation 667
METAR KONO 210453Z AUTO 34008KT 7SM CLR 21/07 A2998 RMK AO2 SLP136 T02110072 TSNO
Observed Flight Rules
Aug-21 @ 04:53 UTC
(9 hours ago)
VFR
Wind Visibility
340° at 8 knots 7 miles
Clouds
  • Clear skies
Temperature Dewpoint
21°C / 70°F 7°C / 45°F
Humidity Altimeter Pressure
40% 29.98" Hg 1013.6 hPa